Friday, March 27, 2015
03:37 UTC
  |  Log In   |  Register Free
Airport Search:

Lewis University Airport
(KLOT)

Lewis University Airport Diagram
No Airport Diagram Available

FAA data valid effective March 05, 2015 - April 30, 2015 (unless otherwise noted).

 
 
 
 
 
 
 
 
 
 
 
 
 
 

Current Aviation Weather for Lewis University Airport (KLOT)

The most recent METAR observation for KLOT was updated at: 1411
METAR Summary (Translated METAR)
KLOT
251355Z AUTO 27012G19KT 2SM BR OVC005 02/02 A2993 RMK AO2 T00230023
KJOT
251355Z AUTO 26010G14KT 3SM BR OVC005 04/03 A2994 RMK AO2 T00350027
(6.4 nm SW from KLOT)
KC09
251355Z AUTO 28014KT 3SM BR OVC008 03/02 A2994 RMK AO2 T00270016
(18.2 nm SW from KLOT)
TAF
No TAF information found within 50 nm of KLOT
  Airport Weather Conditions for KLOT

 Current Weather at LOT
35° F
Overcast
North winds at 8.1 mph
LOT NOAA Radar

Pressure: 30.06 in
Humidity: 57%
Wind: North at 8.1 MPH (7 KT)
Dew Point: 21.4°F
Visibility: 10.00 mi


Airport Weather Forecast for KLOT

Translated METAR and TAF for KLOT
Translated METAR for KLOT (0336 UTC 27 March 2015)
found at http://aviationweather.gov/adds/metars/
 
METAR text: KLOT 270315Z AUTO 34006KT 10SM OVC048 02/M06 A3006 RMK AO2 T00151061
Conditions at: KLOT (ROMEOVILLE/CHI , IL, US) observed 0315 UTC 27 March 2015
Temperature: 1.5°C (35°F)
Dewpoint: -6.1°C (21°F) [RH = 57%]
Pressure (altimeter): 30.06 inches Hg (1018.0 mb)
Winds: from the NNW (340 degrees) at 7 MPH (6 knots; 3.1 m/s)
Visibility: 10 or more miles (16+ km)
Ceiling: 4800 feet AGL
Clouds: overcast cloud deck at 4800 feet AGL
Weather: automated observation with no human augmentation;
there may or may not be significant weather present at this time
Translated TAF for KLOT

There is no translated TAF available for this airport

Find All Airport Services Find A Hotel Find A Rental Car Find A Golf Course Find A Restaurant $100 Hamburger



FBO's on the Field
FBO Company Facility Photos Services Transportation Aviation Fuel Prices: Prices include tax
Catering Weather Repair Courtesy Rental Type 100LL JetA JetA+ MOGAS 8087
 
Lewis University Airport

This FBO has not yet been rated
FS:Phillips 66
Last Updated: Mar-10
Login to update fuel prices
SS:
Contact Lewis University AirportMore FBO Information
 
Add another FBO Facility Photos Catering Weather Repair Courtesy Rental Type 100LL JetA JetA+ MOGAS 8087
Services Transportation Aviation Fuel Prices: Prices include tax


model-print
model-print
model-print
model-print